createdAt,value
2019-03-09T00:01:29.584Z,53.76
2019-03-09T00:03:59.282Z,54.02
2019-03-09T00:06:29.096Z,54.03
2019-03-09T00:08:58.713Z,54.26
2019-03-09T00:11:28.739Z,54.22
2019-03-09T00:13:58.044Z,54.30
2019-03-09T00:16:29.833Z,54.00
2019-03-09T00:18:59.670Z,54.47
2019-03-09T00:21:29.020Z,54.28
2019-03-09T00:24:20.357Z,53.96
2019-03-09T00:27:14.726Z,54.24
2019-03-09T00:29:55.871Z,54.38
2019-03-09T00:32:26.994Z,54.59
2019-03-09T00:34:57.059Z,54.47
2019-03-09T00:37:26.361Z,54.36
2019-03-09T00:39:56.351Z,54.12
2019-03-09T00:42:26.162Z,54.50
2019-03-09T00:44:55.663Z,54.40
2019-03-09T00:47:25.127Z,54.11
2019-03-09T00:49:54.913Z,54.26
2019-03-09T00:52:24.225Z,54.19
2019-03-09T00:54:53.671Z,54.16
2019-03-09T00:57:23.551Z,54.30
2019-03-09T00:59:57.219Z,54.59
2019-03-09T01:02:28.398Z,54.46
2019-03-09T01:04:58.147Z,54.37
2019-03-09T01:07:27.554Z,54.49
2019-03-09T01:09:56.847Z,54.81
2019-03-09T01:12:26.527Z,54.75
2019-03-09T01:14:55.815Z,54.68
2019-03-09T01:17:25.077Z,54.43
2019-03-09T01:19:54.650Z,54.58
2019-03-09T01:22:23.939Z,54.75
2019-03-09T01:24:53.196Z,54.70
2019-03-09T01:27:22.922Z,54.82
2019-03-09T01:29:52.613Z,54.96
2019-03-09T01:32:23.448Z,55.01
2019-03-09T01:34:55.243Z,55.08
2019-03-09T01:37:24.549Z,55.22
2019-03-09T01:39:54.040Z,55.17
2019-03-09T01:42:25.403Z,55.31
2019-03-09T01:44:54.716Z,55.34
2019-03-09T01:47:26.386Z,55.33
2019-03-09T01:49:55.658Z,55.44
2019-03-09T01:52:24.964Z,55.56
2019-03-09T01:54:55.780Z,55.63
2019-03-09T01:57:25.200Z,56.14
2019-03-09T01:59:57.034Z,55.88
2019-03-09T02:02:26.954Z,56.13
2019-03-09T02:04:56.243Z,56.49
2019-03-09T02:07:25.523Z,56.76
2019-03-09T02:09:55.146Z,57.19
2019-03-09T02:12:24.385Z,57.10
2019-03-09T02:14:53.662Z,57.07
2019-03-09T02:17:23.526Z,57.13
2019-03-09T02:19:52.841Z,57.36
2019-03-09T02:22:22.133Z,57.07
2019-03-09T02:24:51.827Z,57.57
2019-03-09T02:27:21.108Z,57.64
2019-03-09T02:29:50.607Z,57.71
2019-03-09T02:32:22.352Z,57.71
2019-03-09T02:34:51.937Z,57.54
2019-03-09T02:37:21.276Z,57.72
2019-03-09T02:39:55.910Z,57.76
2019-03-09T02:42:25.191Z,57.75
2019-03-09T02:44:54.523Z,57.76
2019-03-09T02:47:23.769Z,57.80
2019-03-09T02:49:53.024Z,57.76
2019-03-09T02:52:23.119Z,57.89
2019-03-09T02:54:52.354Z,57.69
2019-03-09T02:57:21.585Z,57.87
2019-03-09T02:59:51.430Z,57.95
2019-03-09T03:02:34.046Z,57.95
2019-03-09T03:05:04.884Z,58.16
2019-03-09T03:07:34.145Z,58.29
2019-03-09T03:10:06.273Z,58.53
2019-03-09T03:12:35.617Z,58.75
2019-03-09T03:15:05.370Z,58.49
2019-03-09T03:17:36.312Z,58.63
2019-03-09T03:20:09.098Z,58.97
2019-03-09T03:22:38.656Z,58.92
2019-03-09T03:25:08.371Z,59.27
2019-03-09T03:27:37.682Z,59.65
2019-03-09T03:30:07.117Z,59.95
2019-03-09T03:32:37.482Z,59.97
2019-03-09T03:35:07.421Z,60.21
2019-03-09T03:37:36.669Z,60.64
2019-03-09T03:40:09.504Z,61.06
2019-03-09T03:42:38.844Z,61.24
2019-03-09T03:45:08.108Z,61.41
2019-03-09T03:47:37.876Z,61.40
2019-03-09T03:50:07.160Z,61.39
2019-03-09T03:52:36.434Z,62.24
2019-03-09T03:55:06.290Z,62.48
2019-03-09T03:57:35.518Z,62.74
2019-03-09T04:00:06.325Z,63.76
2019-03-09T04:02:36.185Z,65.57
2019-03-09T04:05:06.361Z,66.30
2019-03-09T04:07:35.564Z,67.05
2019-03-09T04:10:06.237Z,67.39
2019-03-09T04:12:35.617Z,67.45
2019-03-09T04:15:05.132Z,67.80
2019-03-09T04:17:38.004Z,68.36
2019-03-09T04:20:07.741Z,68.65
2019-03-09T04:22:36.952Z,69.34
2019-03-09T04:25:06.689Z,69.77
2019-03-09T04:27:36.445Z,70.24
2019-03-09T04:30:09.165Z,70.93
2019-03-09T04:32:38.380Z,71.61
2019-03-09T04:35:07.793Z,72.71
2019-03-09T04:37:37.354Z,73.91
2019-03-09T04:40:06.833Z,74.41
2019-03-09T04:42:36.375Z,74.78
2019-03-09T04:45:06.740Z,75.79
2019-03-09T04:47:36.204Z,76.06
2019-03-09T04:50:06.875Z,76.11
2019-03-09T04:52:36.440Z,76.39
2019-03-09T04:55:05.999Z,76.50
2019-03-09T04:57:35.288Z,77.21
2019-03-09T05:00:07.040Z,77.02
2019-03-09T05:02:36.247Z,77.30
2019-03-09T05:05:07.366Z,77.75
2019-03-09T05:07:57.436Z,78.03
2019-03-09T05:10:39.726Z,78.00
2019-03-09T05:13:24.796Z,77.82
2019-03-09T05:15:54.162Z,78.01
2019-03-09T05:18:23.970Z,78.46
2019-03-09T05:20:53.242Z,79.15
2019-03-09T05:23:22.537Z,79.27
2019-03-09T05:25:52.252Z,80.19
2019-03-09T05:28:21.502Z,80.08
2019-03-09T05:30:50.845Z,80.16
2019-03-09T05:33:20.459Z,80.89
2019-03-09T05:35:49.739Z,80.89
2019-03-09T05:38:18.999Z,81.00
2019-03-09T05:40:48.549Z,81.12
2019-03-09T05:43:17.794Z,81.60
2019-03-09T05:45:47.449Z,81.99
2019-03-09T05:48:16.650Z,82.39
2019-03-09T05:50:45.895Z,82.80
2019-03-09T05:53:20.667Z,82.99
2019-03-09T05:55:49.918Z,82.97
2019-03-09T05:58:19.141Z,83.47
2019-03-09T06:00:48.917Z,83.10
2019-03-09T06:03:18.170Z,83.56
2019-03-09T06:05:58.779Z,84.31
2019-03-09T06:08:29.381Z,84.30
2019-03-09T06:10:58.620Z,84.52
2019-03-09T06:13:27.891Z,84.90
2019-03-09T06:15:57.458Z,84.85
2019-03-09T06:18:26.830Z,84.70
2019-03-09T06:20:58.877Z,84.81
2019-03-09T06:23:28.565Z,84.60
2019-03-09T06:25:57.846Z,84.65
2019-03-09T06:28:27.591Z,84.77
2019-03-09T06:30:59.378Z,85.08
2019-03-09T06:33:38.740Z,84.86
2019-03-09T06:36:28.949Z,84.75
2019-03-09T06:39:12.891Z,84.74
2019-03-09T06:42:41.695Z,84.93
2019-03-09T06:45:13.069Z,84.84
2019-03-09T06:47:42.337Z,84.80
2019-03-09T06:50:13.890Z,84.77
2019-03-09T06:52:43.517Z,84.68
2019-03-09T06:55:13.036Z,84.85
2019-03-09T06:57:42.282Z,84.33
2019-03-09T07:00:40.538Z,84.39
2019-03-09T07:03:10.582Z,84.56
2019-03-09T07:05:40.806Z,85.08
2019-03-09T07:08:10.121Z,84.52
2019-03-09T07:10:40.276Z,84.13
2019-03-09T07:13:09.878Z,83.68
2019-03-09T07:15:41.209Z,83.71
2019-03-09T07:18:24.430Z,83.60
2019-03-09T07:20:54.073Z,83.76
2019-03-09T07:23:23.332Z,83.48
2019-03-09T07:25:52.616Z,83.55
2019-03-09T07:28:22.528Z,83.45
2019-03-09T07:30:51.844Z,83.10
2019-03-09T07:33:21.114Z,82.96
2019-03-09T07:35:50.847Z,82.52
2019-03-09T07:38:20.169Z,82.34
2019-03-09T07:40:49.462Z,82.06
2019-03-09T07:43:20.510Z,82.01
2019-03-09T07:45:49.778Z,81.97
2019-03-09T07:48:19.133Z,81.75
2019-03-09T07:50:48.792Z,81.80
2019-03-09T07:53:18.049Z,81.82
2019-03-09T07:55:47.436Z,81.18
2019-03-09T07:58:17.115Z,81.03
2019-03-09T08:00:46.551Z,81.22
2019-03-09T08:03:15.793Z,81.49
2019-03-09T08:05:45.470Z,81.59
2019-03-09T08:08:14.922Z,81.67
2019-03-09T08:10:44.213Z,81.21
2019-03-09T08:13:14.129Z,80.88
2019-03-09T08:15:43.456Z,80.40
2019-03-09T08:18:12.911Z,80.30
2019-03-09T08:20:42.731Z,80.23
2019-03-09T08:23:14.062Z,79.76
2019-03-09T08:25:43.311Z,79.51
2019-03-09T08:28:13.003Z,79.39
2019-03-09T08:30:42.347Z,79.86
2019-03-09T08:33:11.602Z,79.57
2019-03-09T08:35:41.343Z,79.13
2019-03-09T08:38:10.591Z,78.69
2019-03-09T08:40:39.846Z,78.68
2019-03-09T08:43:09.844Z,78.75
2019-03-09T08:45:39.235Z,78.22
2019-03-09T08:48:08.516Z,77.98
2019-03-09T08:50:38.152Z,77.97
2019-03-09T08:53:07.409Z,77.63
2019-03-09T08:55:36.742Z,76.79
2019-03-09T08:58:06.619Z,76.69
2019-03-09T09:00:36.195Z,76.51
2019-03-09T09:03:05.395Z,76.60
2019-03-09T09:05:35.130Z,76.25
2019-03-09T09:08:07.392Z,75.91
2019-03-09T09:10:36.671Z,75.53
2019-03-09T09:13:07.445Z,75.05
2019-03-09T09:15:37.657Z,74.84
2019-03-09T09:18:07.503Z,75.24
2019-03-09T09:20:37.145Z,75.51
2019-03-09T09:23:07.788Z,75.25
2019-03-09T09:25:37.132Z,75.12
2019-03-09T09:28:09.640Z,74.77
2019-03-09T09:30:39.909Z,74.26
2019-03-09T09:33:09.928Z,74.12
2019-03-09T09:35:39.551Z,73.67
2019-03-09T09:38:09.338Z,73.65
2019-03-09T09:40:38.616Z,74.32
2019-03-09T09:43:08.259Z,74.23
2019-03-09T09:45:37.563Z,74.50
2019-03-09T09:48:08.266Z,73.83
2019-03-09T09:50:37.550Z,73.59
2019-03-09T09:53:06.801Z,73.66
2019-03-09T09:55:36.581Z,73.79
2019-03-09T09:58:11.577Z,73.38
2019-03-09T10:00:40.897Z,73.38
2019-03-09T10:03:10.587Z,72.61
2019-03-09T10:05:39.934Z,71.86
2019-03-09T10:08:09.288Z,72.04
2019-03-09T10:10:42.371Z,72.35
2019-03-09T10:13:11.770Z,73.18
2019-03-09T10:15:41.005Z,73.31
2019-03-09T10:18:11.622Z,73.20
2019-03-09T10:20:41.048Z,73.18
2019-03-09T10:23:12.638Z,73.08
2019-03-09T10:25:42.419Z,73.00
2019-03-09T10:28:11.757Z,73.32
2019-03-09T10:30:42.608Z,73.48
2019-03-09T10:33:11.850Z,73.50
2019-03-09T10:35:41.215Z,72.99
2019-03-09T10:38:10.800Z,73.53
2019-03-09T10:40:40.198Z,73.36
2019-03-09T10:43:09.562Z,73.20
2019-03-09T10:45:39.267Z,73.20
2019-03-09T10:48:08.514Z,73.46
2019-03-09T10:50:37.872Z,73.33
2019-03-09T10:53:07.671Z,72.70
2019-03-09T10:55:38.386Z,72.68
2019-03-09T10:58:07.767Z,72.81
2019-03-09T11:00:38.127Z,72.63
2019-03-09T11:03:07.456Z,72.54
2019-03-09T11:05:36.765Z,72.52
2019-03-09T11:08:09.416Z,72.19
2019-03-09T11:10:38.781Z,72.18
2019-03-09T11:13:08.079Z,72.36
2019-03-09T11:15:38.021Z,72.61
2019-03-09T11:18:07.495Z,72.47
2019-03-09T11:20:38.089Z,72.73
2019-03-09T11:23:08.942Z,73.48
2019-03-09T11:25:38.216Z,73.90
2019-03-09T11:28:12.635Z,74.40
2019-03-09T11:30:42.377Z,74.43
2019-03-09T11:33:11.647Z,74.18
2019-03-09T11:35:42.709Z,74.01
2019-03-09T11:38:12.577Z,73.33
2019-03-09T11:40:43.282Z,73.30
2019-03-09T11:43:13.025Z,73.62
2019-03-09T11:45:43.057Z,74.27
2019-03-09T11:48:12.390Z,73.76
2019-03-09T11:50:41.889Z,73.38
2019-03-09T11:53:11.698Z,73.47
2019-03-09T11:55:40.970Z,74.21
2019-03-09T11:58:10.252Z,74.74
2019-03-09T12:00:40.415Z,75.61
2019-03-09T12:03:09.721Z,76.31
2019-03-09T12:05:39.052Z,76.88
2019-03-09T12:08:08.706Z,77.63
2019-03-09T12:10:38.212Z,78.20
2019-03-09T12:13:07.872Z,78.67
2019-03-09T12:15:37.773Z,78.40
2019-03-09T12:18:07.925Z,78.81
2019-03-09T12:20:37.621Z,79.86
2019-03-09T12:23:16.872Z,80.19
2019-03-09T12:25:46.394Z,80.21
2019-03-09T12:28:15.782Z,79.79
2019-03-09T12:30:45.153Z,80.09
2019-03-09T12:33:14.595Z,79.72
2019-03-09T12:35:44.695Z,79.24
2019-03-09T12:38:14.141Z,79.23
2019-03-09T12:40:43.995Z,79.13
2019-03-09T12:43:17.496Z,78.94
2019-03-09T12:45:47.895Z,78.90
2019-03-09T12:48:17.396Z,79.17
2019-03-09T12:50:47.190Z,79.99
2019-03-09T12:53:16.599Z,80.30
2019-03-09T12:55:45.971Z,80.55
2019-03-09T12:58:15.851Z,80.87
2019-03-09T13:00:45.435Z,80.91
2019-03-09T13:03:14.771Z,80.75
2019-03-09T13:05:47.092Z,79.90
2019-03-09T13:08:16.474Z,80.23
2019-03-09T13:10:45.876Z,80.49
2019-03-09T13:13:15.610Z,79.72
2019-03-09T13:15:45.267Z,79.49
2019-03-09T13:18:15.141Z,79.80
2019-03-09T13:20:49.779Z,80.10
2019-03-09T13:23:22.504Z,79.86
2019-03-09T13:25:54.735Z,79.74
2019-03-09T13:28:24.461Z,79.46
2019-03-09T13:30:53.922Z,80.09
2019-03-09T13:33:23.584Z,79.82
2019-03-09T13:35:53.343Z,79.48
2019-03-09T13:38:22.893Z,78.93
2019-03-09T13:40:53.000Z,79.33
2019-03-09T13:43:22.514Z,79.26
2019-03-09T13:45:52.148Z,78.96
2019-03-09T13:48:22.541Z,78.52
2019-03-09T13:50:57.244Z,78.71
2019-03-09T13:53:26.814Z,78.99
2019-03-09T13:55:57.294Z,78.61
2019-03-09T13:58:26.987Z,79.08
2019-03-09T14:00:59.636Z,79.22
2019-03-09T14:03:29.647Z,79.30
2019-03-09T14:05:59.394Z,79.03
2019-03-09T14:08:31.339Z,78.90
2019-03-09T14:11:02.066Z,78.89
2019-03-09T14:13:31.565Z,78.84
2019-03-09T14:16:01.269Z,79.77
2019-03-09T14:18:31.393Z,80.16
2019-03-09T14:21:07.108Z,80.83
2019-03-09T14:23:39.122Z,80.93
2019-03-09T14:26:09.166Z,80.74
2019-03-09T14:28:42.757Z,80.34
2019-03-09T14:31:12.857Z,79.96
2019-03-09T14:33:42.517Z,79.50
2019-03-09T14:36:12.423Z,79.01
2019-03-09T14:38:42.480Z,78.58
2019-03-09T14:41:12.163Z,79.16
2019-03-09T14:43:41.914Z,78.35
2019-03-09T14:46:11.884Z,78.18
2019-03-09T14:48:41.668Z,77.14
2019-03-09T14:51:11.446Z,75.28
2019-03-09T14:53:41.050Z,74.34
2019-03-09T14:56:10.716Z,73.22
2019-03-09T14:58:41.772Z,73.63
2019-03-09T15:01:11.530Z,72.44
2019-03-09T15:03:41.240Z,71.98
2019-03-09T15:06:11.051Z,71.48
2019-03-09T15:08:40.760Z,70.95
2019-03-09T15:11:10.747Z,70.76
2019-03-09T15:13:40.470Z,70.38
2019-03-09T15:16:10.215Z,70.24
2019-03-09T15:18:40.381Z,70.19
2019-03-09T15:21:10.106Z,69.33
2019-03-09T15:23:39.788Z,68.25
2019-03-09T15:26:09.475Z,67.09
2019-03-09T15:28:39.297Z,65.01
2019-03-09T15:31:09.838Z,63.41
2019-03-09T15:33:40.054Z,62.47
2019-03-09T15:36:09.997Z,63.31
2019-03-09T15:38:40.080Z,63.18
2019-03-09T15:41:11.440Z,62.89
2019-03-09T15:43:41.163Z,64.22
2019-03-09T15:46:12.449Z,64.57
2019-03-09T15:48:42.826Z,64.86
2019-03-09T15:51:12.631Z,65.07
2019-03-09T15:53:42.526Z,65.57
2019-03-09T15:56:12.617Z,65.75
2019-03-09T15:58:42.577Z,65.18
2019-03-09T16:01:12.400Z,64.51
2019-03-09T16:03:43.437Z,64.55
2019-03-09T16:06:13.441Z,64.50
2019-03-09T16:08:43.144Z,64.31
2019-03-09T16:11:12.986Z,63.30
2019-03-09T16:13:42.852Z,62.36
2019-03-09T16:16:12.589Z,62.85
2019-03-09T16:18:42.746Z,63.04
2019-03-09T16:21:12.564Z,62.55
2019-03-09T16:23:42.262Z,62.95
2019-03-09T16:26:12.760Z,62.68
2019-03-09T16:28:44.948Z,62.41
2019-03-09T16:31:14.805Z,62.14
2019-03-09T16:33:45.484Z,62.19
2019-03-09T16:36:15.402Z,62.01
2019-03-09T16:38:47.139Z,61.51
2019-03-09T16:41:16.853Z,61.92
2019-03-09T16:43:46.922Z,62.09
2019-03-09T16:46:18.123Z,62.23
2019-03-09T16:48:47.972Z,62.00
2019-03-09T16:51:17.887Z,61.79
2019-03-09T16:53:48.299Z,61.98
2019-03-09T16:56:20.408Z,62.09
2019-03-09T16:58:50.272Z,62.41
2019-03-09T17:01:20.488Z,62.67
2019-03-09T17:03:50.199Z,63.04
2019-03-09T17:06:19.968Z,63.09
2019-03-09T17:08:51.357Z,63.39
2019-03-09T17:11:21.126Z,63.46
2019-03-09T17:13:54.044Z,63.20
2019-03-09T17:16:24.109Z,63.15
2019-03-09T17:18:56.882Z,63.22
2019-03-09T17:21:26.682Z,63.41
2019-03-09T17:23:56.855Z,63.62
2019-03-09T17:26:26.634Z,64.00
2019-03-09T17:28:56.591Z,63.91
2019-03-09T17:31:27.051Z,63.71
2019-03-09T17:33:56.856Z,63.69
2019-03-09T17:36:27.626Z,64.09
2019-03-09T17:38:57.920Z,63.99
2019-03-09T17:41:30.455Z,64.04
2019-03-09T17:44:01.627Z,64.26
2019-03-09T17:46:31.953Z,63.74
2019-03-09T17:49:01.774Z,62.83
2019-03-09T17:51:31.741Z,62.82
2019-03-09T17:54:03.246Z,62.72
2019-03-09T17:56:33.083Z,63.02
2019-03-09T17:59:02.849Z,62.94
2019-03-09T18:01:36.065Z,62.58
2019-03-09T18:04:08.914Z,61.99
2019-03-09T18:06:41.672Z,61.68
2019-03-09T18:09:11.631Z,61.72
2019-03-09T18:11:41.527Z,61.60
2019-03-09T18:14:14.404Z,61.57
2019-03-09T18:16:52.417Z,61.52
2019-03-09T18:19:17.951Z,60.97
2019-03-09T18:21:47.793Z,60.90
2019-03-09T18:24:17.665Z,60.58
2019-03-09T18:26:47.568Z,60.31
2019-03-09T18:29:18.740Z,59.95
2019-03-09T18:31:48.466Z,59.94
2019-03-09T18:34:18.610Z,60.01
2019-03-09T18:36:48.418Z,60.03
2019-03-09T18:39:18.350Z,59.93
2019-03-09T18:41:48.630Z,59.84
2019-03-09T18:44:18.524Z,60.07
2019-03-09T18:46:48.300Z,60.51
2019-03-09T18:49:18.730Z,60.88
2019-03-09T18:51:48.602Z,61.28
2019-03-09T18:54:18.353Z,61.40
2019-03-09T18:56:48.306Z,61.78
2019-03-09T18:59:18.577Z,62.08
2019-03-09T19:01:50.100Z,62.32
2019-03-09T19:04:21.158Z,62.35
2019-03-09T19:06:50.957Z,62.64
2019-03-09T19:09:22.171Z,62.44
2019-03-09T19:11:51.989Z,62.02
2019-03-09T19:14:22.100Z,61.93
2019-03-09T19:16:52.407Z,61.88
2019-03-09T19:19:22.269Z,61.50
2019-03-09T19:21:52.086Z,61.53
2019-03-09T19:24:22.289Z,61.45
2019-03-09T19:26:52.204Z,61.34
2019-03-09T19:29:22.249Z,61.23
2019-03-09T19:31:52.484Z,61.38
2019-03-09T19:34:22.568Z,61.59
2019-03-09T19:36:52.801Z,61.95
2019-03-09T19:39:23.141Z,62.31
2019-03-09T19:41:54.002Z,62.54
2019-03-09T19:44:24.342Z,62.44
2019-03-09T19:46:55.255Z,62.58
2019-03-09T19:49:25.175Z,62.75
2019-03-09T19:51:56.553Z,62.98
2019-03-09T19:54:26.367Z,63.17
2019-03-09T19:56:56.380Z,63.16
2019-03-09T19:59:29.965Z,62.81
2019-03-09T20:01:59.941Z,63.00
2019-03-09T20:04:30.034Z,62.78
2019-03-09T20:07:01.622Z,62.81
2019-03-09T20:09:31.653Z,62.37
2019-03-09T20:12:02.271Z,62.39
2019-03-09T20:14:33.735Z,62.25
2019-03-09T20:17:03.600Z,61.97
2019-03-09T20:19:33.496Z,61.71
2019-03-09T20:22:07.966Z,61.76
2019-03-09T20:27:03.479Z,62.76
2019-03-09T20:29:33.759Z,63.06
2019-03-09T20:32:06.672Z,63.34
2019-03-09T20:34:43.474Z,63.39
2019-03-09T20:37:13.484Z,63.73
2019-03-09T20:39:43.392Z,63.70
2019-03-09T20:42:14.247Z,63.60
2019-03-09T20:44:45.308Z,63.89
2019-03-09T20:47:15.628Z,64.01
2019-03-09T20:49:45.965Z,63.73
2019-03-09T20:52:15.932Z,63.87
2019-03-09T20:54:45.947Z,64.20
2019-03-09T20:57:16.938Z,64.32
2019-03-09T20:59:47.204Z,64.40
2019-03-09T21:02:16.976Z,64.19
2019-03-09T21:04:46.807Z,63.99
2019-03-09T21:07:17.211Z,64.15
2019-03-09T21:09:48.117Z,63.92
2019-03-09T21:12:19.621Z,63.73
2019-03-09T21:14:51.818Z,63.54
2019-03-09T21:17:21.941Z,63.64
2019-03-09T21:19:54.033Z,63.78
2019-03-09T21:22:24.316Z,64.10
2019-03-09T21:24:57.300Z,64.21
2019-03-09T21:27:27.239Z,64.47
2019-03-09T21:29:57.572Z,64.21
2019-03-09T21:32:27.364Z,64.17
2019-03-09T21:34:57.360Z,64.34
2019-03-09T21:37:28.846Z,64.33
2019-03-09T21:39:58.553Z,64.59
2019-03-09T21:42:30.871Z,64.54
2019-03-09T21:45:02.138Z,64.55
2019-03-09T21:47:32.089Z,64.55
2019-03-09T21:50:11.288Z,64.55
2019-03-09T21:52:41.846Z,64.54
2019-03-09T21:55:13.731Z,64.20
2019-03-09T21:57:43.567Z,64.20
2019-03-09T22:00:14.174Z,64.66
2019-03-09T22:02:44.167Z,64.96
2019-03-09T22:05:14.607Z,65.36
2019-03-09T22:07:47.154Z,65.48
2019-03-09T22:10:16.741Z,65.32
2019-03-09T22:12:49.391Z,65.21
2019-03-09T22:15:19.100Z,64.86
2019-03-09T22:17:49.088Z,65.07
2019-03-09T22:20:20.458Z,65.09
2019-03-09T22:22:49.870Z,64.92
2019-03-09T22:25:19.279Z,65.00
2019-03-09T22:27:51.728Z,65.17
2019-03-09T22:30:22.742Z,65.02
2019-03-09T22:32:52.583Z,65.29
2019-03-09T22:35:22.696Z,65.20
2019-03-09T22:37:52.506Z,64.98
2019-03-09T22:40:24.965Z,64.96
2019-03-09T22:42:54.647Z,65.02
2019-03-09T22:45:26.156Z,64.97
2019-03-09T22:47:56.471Z,64.99
2019-03-09T22:50:26.040Z,65.04
2019-03-09T22:52:55.965Z,65.12
2019-03-09T22:55:25.473Z,65.02
2019-03-09T22:57:54.838Z,65.04
2019-03-09T23:00:24.803Z,65.40
2019-03-09T23:02:55.702Z,65.52
2019-03-09T23:05:25.257Z,65.36
2019-03-09T23:07:56.086Z,65.53
2019-03-09T23:10:25.462Z,65.62
2019-03-09T23:12:54.924Z,65.75
2019-03-09T23:15:25.124Z,65.83
2019-03-09T23:17:54.698Z,65.77
2019-03-09T23:20:24.123Z,65.90
2019-03-09T23:22:54.035Z,65.79
2019-03-09T23:25:23.648Z,65.83
2019-03-09T23:27:53.049Z,65.91
2019-03-09T23:30:22.888Z,65.96
2019-03-09T23:32:52.583Z,66.02
2019-03-09T23:35:22.660Z,65.92
2019-03-09T23:37:52.606Z,66.09
2019-03-09T23:40:22.143Z,66.06
2019-03-09T23:42:51.676Z,66.18
2019-03-09T23:45:21.650Z,66.28
2019-03-09T23:47:51.131Z,65.85
2019-03-09T23:50:21.497Z,65.49
2019-03-09T23:52:51.306Z,65.29
2019-03-09T23:55:22.960Z,65.21
2019-03-09T23:57:52.802Z,65.26
